Kapitan Antipov — UROW — position and weather

sailwx.info

Track history (hours):
 
Tides and Currents Weather Stations Pressure Air Temp Water Temp Dewpoint Dewpoint Depression Visibility Wind Speed Wind Dir Waves Ship Positions

Kapitan Antipov

Last reported at 2018-Apr-22 03:32 UTC. Time now 2018-Apr-26 11:44 UTC.
Position N 44°22' E 028°01'.

Length 177 m; draft 2.5 m.

Type: Ship. MMSI: 272037300.

Date/timePositionNaut miles runAvg speedWind from/ knotsBaromVisibWave heightAir tempDewpointWater temp
2018-Apr-22 03:32N 44°22' E 028°01'0 4.7
2018-Apr-22 03:28N 44°22' E 028°02'6 1.1
2018-Apr-21 22:11N 44°17' E 028°05'1 5.2
2018-Apr-21 22:00N 44°16' E 028°06'3 5.2
2018-Apr-21 21:30N 44°16' E 028°09'3 5.1
2018-Apr-21 21:00N 44°16' E 028°13'2 5.0
2018-Apr-21 20:30N 44°15' E 028°16'2 4.8
2018-Apr-21 20:00N 44°15' E 028°19'2 4.6
2018-Apr-21 19:30N 44°14' E 028°22'2 4.7
2018-Apr-21 19:00N 44°12' E 028°24'8 4.4
2018-Apr-21 17:08N 44°06' E 028°32'1 4.9
2018-Apr-21 16:58N 44°06' E 028°33'2 4.9
2018-Apr-21 16:30N 44°06' E 028°36'1 1.6
2018-Apr-21 16:00N 44°06' E 028°37'0 0.7
2018-Apr-21 15:30N 44°06' E 028°38'0 0.9
2018-Apr-21 15:00N 44°06' E 028°38'1 2.8
2018-Apr-21 14:31N 44°07' E 028°39'  
Track history (hours):
 
Tides and Currents Weather Stations Pressure Air Temp Water Temp Dewpoint Dewpoint Depression Visibility Wind Speed Wind Dir Waves Ship Positions

Kapitan Antipov

Last reported at 2018-Apr-22 03:32 UTC. Time now 2018-Apr-26 11:44 UTC.
Position N 44°22' E 028°01'.

Length 177 m; draft 2.5 m.

Type: Ship. MMSI: 272037300.

Date/timePositionNaut miles runAvg speedWind from/ knotsBaromVisibWave heightAir tempDewpointWater temp
2018-Apr-22 03:32N 44°22' E 028°01'0 4.7
2018-Apr-22 03:28N 44°22' E 028°02'6 1.1
2018-Apr-21 22:11N 44°17' E 028°05'1 5.2
2018-Apr-21 22:00N 44°16' E 028°06'3 5.2
2018-Apr-21 21:30N 44°16' E 028°09'3 5.1
2018-Apr-21 21:00N 44°16' E 028°13'2 5.0
2018-Apr-21 20:30N 44°15' E 028°16'2 4.8
2018-Apr-21 20:00N 44°15' E 028°19'2 4.6
2018-Apr-21 19:30N 44°14' E 028°22'2 4.7
2018-Apr-21 19:00N 44°12' E 028°24'8 4.4
2018-Apr-21 17:08N 44°06' E 028°32'1 4.9
2018-Apr-21 16:58N 44°06' E 028°33'2 4.9
2018-Apr-21 16:30N 44°06' E 028°36'1 1.6
2018-Apr-21 16:00N 44°06' E 028°37'0 0.7
2018-Apr-21 15:30N 44°06' E 028°38'0 0.9
2018-Apr-21 15:00N 44°06' E 028°38'1 2.8
2018-Apr-21 14:31N 44°07' E 028°39'  

Dump ship's entire track history